createdAt,value
2022-07-25T00:00:47.372Z,7.28
2022-07-25T00:03:18.547Z,6.40
2022-07-25T00:05:46.878Z,7.05
2022-07-25T00:08:16.100Z,8.00
2022-07-25T00:10:44.423Z,6.75
2022-07-25T00:13:13.252Z,7.32
2022-07-25T00:15:42.006Z,7.93
2022-07-25T00:18:10.789Z,8.18
2022-07-25T00:20:39.378Z,8.10
2022-07-25T00:23:08.079Z,7.50
2022-07-25T00:25:37.365Z,7.68
2022-07-25T00:28:06.312Z,8.10
2022-07-25T00:30:34.881Z,7.23
2022-07-25T00:33:03.330Z,7.85
2022-07-25T00:35:32.193Z,7.28
2022-07-25T00:38:00.121Z,7.47
2022-07-25T00:40:29.163Z,7.30
2022-07-25T00:42:58.360Z,6.80
2022-07-25T00:45:26.038Z,6.32
2022-07-25T00:47:53.957Z,6.88
2022-07-25T00:50:22.649Z,6.75
2022-07-25T00:52:51.395Z,6.70
2022-07-25T00:55:19.851Z,6.68
2022-07-25T00:57:47.784Z,6.47
2022-07-25T01:00:19.537Z,6.68
2022-07-25T01:02:48.480Z,6.07
2022-07-25T01:05:19.082Z,6.07
2022-07-25T01:07:48.533Z,6.63
2022-07-25T01:10:16.772Z,6.60
2022-07-25T01:12:54.886Z,6.35
2022-07-25T01:15:25.117Z,6.18
2022-07-25T01:17:53.268Z,6.63
2022-07-25T01:20:27.953Z,6.40
2022-07-25T01:22:56.674Z,6.73
2022-07-25T01:25:25.290Z,6.57
2022-07-25T01:27:55.710Z,6.47
2022-07-25T01:30:25.806Z,6.83
2022-07-25T01:32:55.144Z,6.20
2022-07-25T01:35:24.633Z,6.20
2022-07-25T01:37:53.411Z,6.57
2022-07-25T01:40:21.319Z,6.75
2022-07-25T01:42:50.007Z,6.93
2022-07-25T01:45:17.889Z,7.07
2022-07-25T01:47:45.819Z,6.65
2022-07-25T01:50:13.789Z,7.50
2022-07-25T01:52:44.304Z,6.63
2022-07-25T01:55:12.249Z,6.97
2022-07-25T01:57:41.335Z,7.68
2022-07-25T02:00:18.344Z,7.93
2022-07-25T02:02:46.877Z,7.72
2022-07-25T02:05:15.768Z,7.72
2022-07-25T02:07:44.863Z,7.47
2022-07-25T02:10:14.356Z,7.50
2022-07-25T02:12:42.265Z,7.78
2022-07-25T02:15:10.776Z,8.05
2022-07-25T02:17:39.835Z,7.22
2022-07-25T02:20:08.509Z,7.43
2022-07-25T02:22:37.280Z,7.67
2022-07-25T02:25:10.201Z,7.43
2022-07-25T02:27:38.721Z,7.90
2022-07-25T02:30:07.871Z,7.72
2022-07-25T02:36:16.257Z,6.90
2022-07-25T02:38:44.993Z,8.07
2022-07-25T02:41:14.168Z,7.20
2022-07-25T02:43:42.962Z,7.75
2022-07-25T02:46:12.252Z,7.88
2022-07-25T02:48:40.988Z,8.07
2022-07-25T02:51:09.261Z,7.83
2022-07-25T02:53:56.688Z,7.87
2022-07-25T02:56:32.058Z,8.20
2022-07-25T02:59:00.245Z,8.35
2022-07-25T03:01:28.726Z,8.93
2022-07-25T03:03:57.430Z,7.80
2022-07-25T03:06:27.472Z,7.95
2022-07-25T03:08:56.283Z,7.70
2022-07-25T03:11:24.402Z,8.18
2022-07-25T03:13:56.147Z,8.77
2022-07-25T03:16:24.393Z,8.23
2022-07-25T03:18:53.344Z,7.78
2022-07-25T03:21:21.279Z,8.13
2022-07-25T03:24:03.761Z,8.18
2022-07-25T03:27:35.709Z,7.75
2022-07-25T03:30:05.968Z,8.30
2022-07-25T03:32:33.782Z,8.07
2022-07-25T03:35:03.372Z,7.45
2022-07-25T03:37:33.210Z,7.68
2022-07-25T03:40:01.659Z,7.90
2022-07-25T03:42:34.979Z,8.23
2022-07-25T03:45:08.338Z,8.35
2022-07-25T03:47:36.224Z,7.95
2022-07-25T03:50:04.400Z,8.05
2022-07-25T03:52:33.186Z,7.93
2022-07-25T03:55:01.220Z,7.53
2022-07-25T03:57:29.077Z,7.95
2022-07-25T03:59:57.931Z,8.10
2022-07-25T04:02:31.241Z,8.25
2022-07-25T04:04:59.318Z,7.63
2022-07-25T04:07:27.912Z,7.32
2022-07-25T04:09:56.653Z,7.85
2022-07-25T04:12:24.582Z,7.45
2022-07-25T04:14:52.694Z,8.15
2022-07-25T04:17:20.527Z,8.27
2022-07-25T04:19:52.555Z,7.93
2022-07-25T04:23:24.516Z,7.43
2022-07-25T04:25:52.464Z,7.85
2022-07-25T04:28:20.689Z,7.88
2022-07-25T04:30:49.313Z,7.78
2022-07-25T04:33:18.148Z,8.17
2022-07-25T04:35:48.081Z,7.65
2022-07-25T04:38:16.834Z,7.65
2022-07-25T04:40:44.927Z,7.47
2022-07-25T04:43:13.730Z,7.72
2022-07-25T04:45:42.349Z,7.28
2022-07-25T04:48:11.264Z,6.93
2022-07-25T04:50:39.263Z,7.15
2022-07-25T04:53:08.782Z,7.32
2022-07-25T04:55:38.952Z,7.28
2022-07-25T04:58:07.426Z,7.65
2022-07-25T05:00:35.490Z,7.25
2022-07-25T05:03:04.238Z,6.90
2022-07-25T05:05:32.791Z,7.22
2022-07-25T05:08:01.107Z,6.70
2022-07-25T05:10:33.054Z,6.73
2022-07-25T05:13:00.957Z,6.72
2022-07-25T05:15:29.977Z,6.65
2022-07-25T05:17:57.895Z,6.60
2022-07-25T05:21:29.957Z,6.45
2022-07-25T05:23:59.190Z,5.97
2022-07-25T05:26:28.437Z,6.17
2022-07-25T05:28:57.015Z,6.63
2022-07-25T05:31:25.837Z,7.10
2022-07-25T05:33:54.479Z,6.72
2022-07-25T05:36:22.996Z,5.80
2022-07-25T05:38:51.432Z,6.18
2022-07-25T05:41:21.409Z,6.43
2022-07-25T05:43:54.036Z,6.75
2022-07-25T05:46:22.278Z,6.13
2022-07-25T05:48:53.927Z,5.82
2022-07-25T05:51:26.835Z,6.38
2022-07-25T05:53:55.436Z,6.13
2022-07-25T05:56:23.560Z,5.70
2022-07-25T05:58:52.755Z,5.68
2022-07-25T06:01:20.541Z,6.13
2022-07-25T06:03:48.539Z,6.10
2022-07-25T06:06:16.533Z,6.22
2022-07-25T06:08:45.355Z,5.70
2022-07-25T06:11:13.356Z,5.80
2022-07-25T06:13:41.290Z,5.63
2022-07-25T06:16:11.107Z,5.80
2022-07-25T06:18:39.144Z,5.70
2022-07-25T06:21:07.730Z,5.40
2022-07-25T06:23:35.361Z,5.63
2022-07-25T06:26:03.074Z,5.70
2022-07-25T06:28:30.830Z,5.40
2022-07-25T06:30:58.425Z,4.97
2022-07-25T06:33:27.464Z,5.20
2022-07-25T06:35:55.136Z,5.00
2022-07-25T06:38:22.803Z,5.22
2022-07-25T06:40:50.436Z,5.13
2022-07-25T06:43:18.163Z,5.30
2022-07-25T06:45:47.448Z,5.10
2022-07-25T06:48:15.759Z,5.20
2022-07-25T06:50:44.845Z,5.20
2022-07-25T06:53:12.659Z,4.97
2022-07-25T06:55:40.350Z,5.00
2022-07-25T06:58:08.308Z,4.53
2022-07-25T07:00:37.056Z,4.80
2022-07-25T07:03:07.060Z,4.63
2022-07-25T07:05:37.755Z,4.80
2022-07-25T07:08:10.442Z,4.80
2022-07-25T07:10:40.401Z,4.90
2022-07-25T07:13:11.548Z,4.50
2022-07-25T07:15:41.130Z,4.88
2022-07-25T07:18:09.145Z,5.03
2022-07-25T07:20:37.266Z,4.88
2022-07-25T07:23:05.681Z,4.82
2022-07-25T07:25:35.339Z,4.50
2022-07-25T07:28:03.659Z,4.55
2022-07-25T07:30:58.525Z,4.50
2022-07-25T07:33:20.796Z,4.82
2022-07-25T07:35:48.689Z,4.43
2022-07-25T07:38:18.129Z,4.40
2022-07-25T07:41:47.005Z,4.53
2022-07-25T07:44:16.669Z,4.35
2022-07-25T07:46:44.653Z,4.68
2022-07-25T07:49:13.548Z,4.50
2022-07-25T07:51:41.288Z,4.80
2022-07-25T07:54:26.718Z,4.85
2022-07-25T07:56:55.288Z,4.55
2022-07-25T07:59:27.912Z,4.63
2022-07-25T08:01:57.199Z,4.60
2022-07-25T08:04:25.424Z,4.78
2022-07-25T08:06:54.000Z,4.80
2022-07-25T08:09:23.867Z,4.65
2022-07-25T08:11:52.023Z,4.40
2022-07-25T08:14:20.781Z,4.57
2022-07-25T08:16:53.499Z,4.55
2022-07-25T08:19:21.962Z,5.00
2022-07-25T08:21:50.042Z,4.72
2022-07-25T08:24:18.035Z,4.43
2022-07-25T08:26:46.502Z,4.32
2022-07-25T08:29:21.237Z,4.60
2022-07-25T08:31:55.285Z,4.72
2022-07-25T08:34:23.922Z,4.80
2022-07-25T08:36:51.687Z,4.70
2022-07-25T08:39:19.454Z,5.03
2022-07-25T08:41:47.696Z,5.25
2022-07-25T08:44:17.093Z,4.93
2022-07-25T08:46:45.644Z,4.70
2022-07-25T08:49:18.892Z,5.03
2022-07-25T08:51:47.629Z,4.45
2022-07-25T08:54:19.689Z,4.10
2022-07-25T08:56:52.703Z,4.65
2022-07-25T08:59:20.689Z,5.00
2022-07-25T09:01:49.466Z,4.47
2022-07-25T09:04:21.370Z,4.80
2022-07-25T09:06:54.843Z,4.60
2022-07-25T09:09:32.296Z,4.53
2022-07-25T09:12:01.153Z,4.15
2022-07-25T09:14:30.022Z,4.70
2022-07-25T09:16:59.137Z,4.68
2022-07-25T09:19:33.191Z,4.55
2022-07-25T09:22:03.536Z,4.63
2022-07-25T09:24:33.534Z,4.50
2022-07-25T09:27:10.140Z,5.00
2022-07-25T09:29:42.682Z,4.50
2022-07-25T09:32:18.888Z,4.53
2022-07-25T09:34:49.614Z,4.22
2022-07-25T09:38:21.988Z,4.72
2022-07-25T09:40:57.540Z,4.70
2022-07-25T09:43:25.721Z,4.75
2022-07-25T09:49:41.659Z,4.30
2022-07-25T09:52:16.754Z,4.70
2022-07-25T09:54:45.721Z,4.57
2022-07-25T09:57:13.681Z,4.88
2022-07-25T09:59:41.713Z,5.07
2022-07-25T10:02:16.975Z,4.80
2022-07-25T10:04:47.467Z,5.10
2022-07-25T10:07:20.886Z,4.45
2022-07-25T10:09:51.187Z,4.63
2022-07-25T10:12:21.168Z,4.43
2022-07-25T10:15:06.551Z,4.55
2022-07-25T10:17:34.715Z,4.85
2022-07-25T10:20:04.078Z,4.90
2022-07-25T10:22:56.810Z,4.80
2022-07-25T10:25:25.675Z,4.72
2022-07-25T10:28:00.065Z,4.82
2022-07-25T10:30:30.331Z,4.65
2022-07-25T10:32:59.713Z,5.65
2022-07-25T10:35:28.639Z,6.70
2022-07-25T10:37:59.353Z,6.73
2022-07-25T10:40:33.687Z,4.78
2022-07-25T10:43:09.968Z,5.10
2022-07-25T10:45:45.178Z,6.75
2022-07-25T10:48:21.149Z,5.88
2022-07-25T10:50:55.854Z,6.53
2022-07-25T10:53:38.243Z,10.73
2022-07-25T10:56:09.318Z,7.45
2022-07-25T10:58:44.484Z,7.80
2022-07-25T11:01:14.946Z,4.90
2022-07-25T11:03:45.690Z,4.97
2022-07-25T11:06:15.173Z,4.80
2022-07-25T11:08:45.998Z,6.63
2022-07-25T11:11:14.430Z,4.60
2022-07-25T11:13:43.434Z,8.07
2022-07-25T11:16:12.341Z,6.60
2022-07-25T11:18:42.549Z,4.90
2022-07-25T11:21:11.364Z,4.72
2022-07-25T11:23:39.229Z,5.05
2022-07-25T11:26:10.199Z,4.88
2022-07-25T11:28:42.278Z,5.45
2022-07-25T11:31:10.971Z,6.55
2022-07-25T11:33:42.119Z,5.35
2022-07-25T11:36:11.740Z,5.10
2022-07-25T11:39:44.083Z,5.22
2022-07-25T11:42:16.369Z,5.38
2022-07-25T11:44:47.883Z,5.45
2022-07-25T11:47:30.117Z,5.05
2022-07-25T11:49:59.762Z,4.67
2022-07-25T11:52:31.191Z,4.50
2022-07-25T11:55:00.468Z,4.83
2022-07-25T11:57:30.842Z,5.00
2022-07-25T12:00:01.360Z,4.22
2022-07-25T12:02:32.094Z,4.20
2022-07-25T12:05:01.356Z,3.83
2022-07-25T12:07:40.148Z,4.68
2022-07-25T12:10:10.688Z,4.22
2022-07-25T12:12:48.633Z,3.90
2022-07-25T12:15:17.941Z,4.43
2022-07-25T12:17:47.255Z,3.90
2022-07-25T12:20:19.825Z,4.38
2022-07-25T12:22:48.888Z,4.32
2022-07-25T12:25:17.651Z,4.05
2022-07-25T12:27:50.308Z,3.58
2022-07-25T12:30:19.597Z,3.30
2022-07-25T12:32:48.297Z,3.60
2022-07-25T12:35:17.308Z,3.40
2022-07-25T12:37:45.629Z,3.53
2022-07-25T12:40:14.882Z,3.43
2022-07-25T12:42:44.066Z,3.30
2022-07-25T12:45:17.158Z,3.08
2022-07-25T12:47:45.496Z,2.88
2022-07-25T12:50:14.937Z,2.67
2022-07-25T12:52:44.168Z,2.83
2022-07-25T12:55:13.721Z,2.97
2022-07-25T12:57:42.169Z,2.47
2022-07-25T13:00:12.913Z,2.50
2022-07-25T13:02:42.402Z,2.20
2022-07-25T13:05:11.800Z,2.30
2022-07-25T13:07:40.721Z,2.33
2022-07-25T13:10:09.310Z,1.98
2022-07-25T13:12:37.059Z,2.30
2022-07-25T13:15:05.530Z,2.63
2022-07-25T13:17:33.954Z,2.30
2022-07-25T13:20:07.336Z,2.17
2022-07-25T13:22:35.580Z,1.98
2022-07-25T13:25:04.641Z,1.77
2022-07-25T13:27:33.385Z,1.60
2022-07-25T13:30:03.064Z,1.88
2022-07-25T13:33:32.271Z,1.73
2022-07-25T13:36:02.488Z,1.40
2022-07-25T13:38:31.142Z,1.45
2022-07-25T13:42:00.312Z,1.10
2022-07-25T13:44:28.172Z,1.48
2022-07-25T13:46:57.451Z,1.30
2022-07-25T13:49:25.424Z,1.30
2022-07-25T13:51:55.219Z,1.23
2022-07-25T13:54:23.498Z,1.45
2022-07-25T13:56:53.094Z,1.67
2022-07-25T13:59:22.155Z,1.27
2022-07-25T14:01:50.692Z,1.60
2022-07-25T14:04:19.880Z,1.40
2022-07-25T14:06:51.960Z,3.78
2022-07-25T14:09:24.389Z,1.25
2022-07-25T14:12:57.258Z,1.42
2022-07-25T14:15:25.119Z,1.70
2022-07-25T14:17:53.679Z,1.20
2022-07-25T14:20:21.705Z,2.70
2022-07-25T14:22:50.768Z,1.70
2022-07-25T14:25:20.245Z,1.45
2022-07-25T14:27:48.299Z,1.48
2022-07-25T14:30:16.897Z,1.70
2022-07-25T14:32:45.584Z,1.52
2022-07-25T14:35:14.060Z,1.80
2022-07-25T14:37:42.468Z,1.42
2022-07-25T14:40:14.634Z,1.60
2022-07-25T14:42:44.800Z,1.30
2022-07-25T14:45:13.364Z,1.80
2022-07-25T14:48:45.232Z,1.45
2022-07-25T14:51:13.211Z,1.70
2022-07-25T14:53:42.114Z,1.30
2022-07-25T14:56:10.856Z,1.27
2022-07-25T14:58:43.074Z,1.60
2022-07-25T15:01:11.414Z,2.20
2022-07-25T15:03:40.157Z,1.30
2022-07-25T15:06:10.320Z,1.60
2022-07-25T15:08:38.830Z,2.03
2022-07-25T15:11:08.217Z,1.90
2022-07-25T15:13:36.522Z,1.80
2022-07-25T15:16:07.957Z,2.13
2022-07-25T15:18:58.558Z,4.10
2022-07-25T15:21:25.567Z,1.90
2022-07-25T15:23:53.989Z,1.80
2022-07-25T15:26:21.854Z,1.70
2022-07-25T15:28:50.393Z,1.77
2022-07-25T15:31:21.352Z,4.30
2022-07-25T15:33:49.792Z,1.95
2022-07-25T15:36:20.068Z,2.05
2022-07-25T15:38:47.907Z,2.40
2022-07-25T15:41:16.329Z,2.20
2022-07-25T15:43:44.100Z,2.50
2022-07-25T15:46:12.622Z,2.20
2022-07-25T15:48:42.028Z,2.63
2022-07-25T15:51:10.043Z,2.05
2022-07-25T15:53:38.152Z,2.40
2022-07-25T15:56:06.357Z,2.28
2022-07-25T15:58:34.623Z,2.35
2022-07-25T16:01:03.422Z,2.88
2022-07-25T16:03:32.874Z,2.47
2022-07-25T16:06:04.730Z,2.60
2022-07-25T16:08:32.547Z,2.35
2022-07-25T16:11:01.048Z,2.30
2022-07-25T16:13:29.701Z,2.45
2022-07-25T16:15:59.005Z,2.38
2022-07-25T16:18:27.873Z,2.20
2022-07-25T16:20:57.341Z,2.08
2022-07-25T16:23:28.162Z,1.70
2022-07-25T16:25:56.747Z,2.00
2022-07-25T16:28:24.461Z,1.58
2022-07-25T16:30:54.186Z,1.80
2022-07-25T16:33:21.974Z,2.15
2022-07-25T16:35:49.848Z,2.05
2022-07-25T16:38:18.576Z,1.95
2022-07-25T16:40:47.867Z,1.55
2022-07-25T16:44:19.719Z,1.92
2022-07-25T16:46:47.968Z,1.70
2022-07-25T16:49:16.311Z,1.73
2022-07-25T16:51:44.285Z,1.90
2022-07-25T16:54:13.150Z,1.70
2022-07-25T16:56:43.469Z,1.97
2022-07-25T16:59:11.743Z,1.85
2022-07-25T17:01:40.236Z,1.60
2022-07-25T17:04:08.384Z,1.60
2022-07-25T17:06:38.140Z,1.83
2022-07-25T17:09:07.541Z,2.00
2022-07-25T17:11:37.329Z,1.63
2022-07-25T17:14:06.495Z,1.90
2022-07-25T17:16:35.277Z,2.20
2022-07-25T17:19:04.451Z,2.08
2022-07-25T17:21:33.215Z,2.10
2022-07-25T17:24:01.188Z,1.65
2022-07-25T17:26:29.897Z,1.95
2022-07-25T17:28:59.703Z,2.50
2022-07-25T17:31:29.710Z,2.00
2022-07-25T17:33:57.750Z,2.08
2022-07-25T17:36:25.719Z,2.13
2022-07-25T17:38:53.499Z,2.40
2022-07-25T17:42:25.560Z,2.67
2022-07-25T17:44:54.052Z,2.08
2022-07-25T17:47:24.564Z,2.28
2022-07-25T17:49:52.825Z,2.40
2022-07-25T17:52:20.598Z,2.20
2022-07-25T17:54:48.765Z,2.33
2022-07-25T17:57:17.388Z,2.47
2022-07-25T17:59:45.492Z,2.05
2022-07-25T18:02:14.289Z,2.42
2022-07-25T18:04:46.406Z,2.10
2022-07-25T18:07:15.133Z,2.40
2022-07-25T18:09:42.977Z,2.15
2022-07-25T18:12:11.805Z,2.22
2022-07-25T18:14:39.641Z,2.17
2022-07-25T18:17:09.254Z,2.25
2022-07-25T18:19:38.031Z,2.15
2022-07-25T18:22:10.881Z,2.20
2022-07-25T18:24:38.849Z,2.15
2022-07-25T18:27:08.277Z,1.80
2022-07-25T18:29:38.789Z,1.75
2022-07-25T18:32:07.556Z,1.80
2022-07-25T18:34:36.516Z,1.70
2022-07-25T18:37:04.459Z,1.77
2022-07-25T18:39:37.393Z,1.40
2022-07-25T18:42:06.418Z,1.80
2022-07-25T18:44:34.255Z,1.40
2022-07-25T18:47:02.128Z,1.60
2022-07-25T18:49:30.530Z,1.30
2022-07-25T18:51:58.456Z,1.25
2022-07-25T18:54:26.118Z,1.40
2022-07-25T18:56:56.231Z,1.30
2022-07-25T18:59:25.381Z,1.53
2022-07-25T19:01:55.155Z,1.43
2022-07-25T19:04:23.680Z,1.02
2022-07-25T19:06:52.162Z,1.30
2022-07-25T19:09:20.068Z,1.25
2022-07-25T19:11:49.059Z,1.60
2022-07-25T19:14:23.039Z,1.42
2022-07-25T19:16:51.693Z,1.38
2022-07-25T19:19:21.384Z,1.50
2022-07-25T19:21:51.579Z,1.00
2022-07-25T19:24:19.960Z,1.33
2022-07-25T19:26:48.840Z,1.10
2022-07-25T19:29:20.008Z,1.15
2022-07-25T19:31:49.112Z,1.25
2022-07-25T19:34:17.518Z,1.05
2022-07-25T19:36:46.470Z,1.05
2022-07-25T19:39:16.017Z,1.10
2022-07-25T19:41:47.101Z,0.93
2022-07-25T19:44:16.222Z,1.20
2022-07-25T19:46:46.467Z,1.10
2022-07-25T19:50:18.577Z,1.02
2022-07-25T19:52:46.928Z,1.00
2022-07-25T19:55:14.619Z,1.17
2022-07-25T19:57:43.945Z,1.10
2022-07-25T20:00:12.513Z,1.13
2022-07-25T20:02:44.922Z,1.17
2022-07-25T20:05:12.792Z,1.10
2022-07-25T20:07:40.513Z,1.10
2022-07-25T20:10:10.149Z,1.40
2022-07-25T20:12:38.100Z,1.30
2022-07-25T20:15:07.229Z,1.55
2022-07-25T20:17:35.939Z,1.83
2022-07-25T20:20:07.329Z,1.20
2022-07-25T20:22:37.936Z,1.37
2022-07-25T20:25:06.458Z,1.13
2022-07-25T20:27:35.361Z,1.00
2022-07-25T20:30:04.627Z,1.20
2022-07-25T20:32:33.115Z,1.23
2022-07-25T20:35:01.279Z,1.00
2022-07-25T20:37:30.494Z,1.17
2022-07-25T20:39:59.455Z,1.10
2022-07-25T20:42:27.445Z,1.17
2022-07-25T20:44:56.597Z,1.10
2022-07-25T20:47:25.357Z,0.98
2022-07-25T20:49:53.941Z,1.20
2022-07-25T20:52:21.667Z,0.85
2022-07-25T20:54:50.997Z,0.80
2022-07-25T20:57:19.572Z,0.95
2022-07-25T20:59:50.756Z,0.90
2022-07-25T21:02:18.966Z,1.10
2022-07-25T21:04:49.029Z,1.13
2022-07-25T21:07:17.089Z,1.07
2022-07-25T21:09:45.426Z,0.70
2022-07-25T21:12:17.537Z,0.90
2022-07-25T21:14:46.013Z,1.00
2022-07-25T21:17:13.835Z,0.90
2022-07-25T21:19:42.576Z,1.00
2022-07-25T21:22:11.213Z,1.10
2022-07-25T21:24:39.550Z,0.97
2022-07-25T21:27:07.593Z,1.10
2022-07-25T21:29:37.646Z,1.00
2022-07-25T21:32:07.420Z,1.10
2022-07-25T21:34:35.336Z,0.97
2022-07-25T21:37:04.305Z,1.00
2022-07-25T21:39:33.192Z,1.02
2022-07-25T21:42:02.141Z,1.48
2022-07-25T21:44:30.350Z,1.10
2022-07-25T21:46:59.637Z,0.88
2022-07-25T21:49:44.941Z,1.30
2022-07-25T21:52:14.332Z,0.88
2022-07-25T21:54:42.645Z,1.05
2022-07-25T21:57:13.761Z,1.20
2022-07-25T21:59:42.031Z,1.20
2022-07-25T22:02:11.267Z,1.00
2022-07-25T22:04:40.627Z,1.33
2022-07-25T22:07:08.671Z,1.03
2022-07-25T22:09:36.917Z,1.17
2022-07-25T22:12:06.970Z,1.15
2022-07-25T22:14:34.779Z,1.20
2022-07-25T22:17:02.786Z,1.10
2022-07-25T22:19:32.312Z,1.20
2022-07-25T22:22:01.179Z,1.20
2022-07-25T22:24:28.815Z,1.10
2022-07-25T22:26:58.556Z,1.00
2022-07-25T22:29:27.004Z,1.23
2022-07-25T22:31:55.407Z,1.10
2022-07-25T22:34:25.035Z,1.33
2022-07-25T22:36:56.573Z,1.10
2022-07-25T22:39:24.781Z,1.30
2022-07-25T22:41:52.724Z,1.38
2022-07-25T22:44:20.459Z,1.10
2022-07-25T22:46:48.426Z,1.10
2022-07-25T22:49:18.060Z,1.20
2022-07-25T22:51:46.509Z,1.00
2022-07-25T22:54:15.928Z,1.70
2022-07-25T22:56:44.730Z,1.60
2022-07-25T22:59:12.685Z,1.70
2022-07-25T23:01:40.388Z,1.45
2022-07-25T23:04:08.549Z,1.48
2022-07-25T23:07:41.475Z,1.20
2022-07-25T23:10:12.331Z,1.30
2022-07-25T23:12:40.179Z,1.13
2022-07-25T23:15:09.102Z,1.80
2022-07-25T23:17:37.980Z,1.20
2022-07-25T23:20:07.342Z,2.00
2022-07-25T23:22:34.997Z,1.10
2022-07-25T23:25:02.913Z,1.73
2022-07-25T23:27:33.924Z,1.25
2022-07-25T23:30:04.480Z,1.20
2022-07-25T23:32:32.706Z,1.40
2022-07-25T23:35:01.354Z,1.60
2022-07-25T23:37:29.982Z,1.33
2022-07-25T23:43:57.214Z,1.40
2022-07-25T23:46:29.401Z,1.50
2022-07-25T23:49:00.541Z,1.50
2022-07-25T23:51:28.336Z,1.50
2022-07-25T23:53:56.044Z,1.48
2022-07-25T23:56:23.949Z,1.50
2022-07-25T23:58:55.018Z,2.13
